createdAt,value
2023-12-10T00:01:07.844Z,18.54
2023-12-10T00:03:53.187Z,18.52
2023-12-10T00:06:21.833Z,18.51
2023-12-10T00:08:50.468Z,18.51
2023-12-10T00:11:18.942Z,18.51
2023-12-10T00:13:47.767Z,18.51
2023-12-10T00:16:16.327Z,18.51
2023-12-10T00:18:46.039Z,18.51
2023-12-10T00:21:15.383Z,18.50
2023-12-10T00:23:44.579Z,18.49
2023-12-10T00:26:13.033Z,18.47
2023-12-10T00:28:41.465Z,18.48
2023-12-10T00:31:10.305Z,18.47
2023-12-10T00:33:39.093Z,18.47
2023-12-10T00:36:08.367Z,18.45
2023-12-10T00:38:36.739Z,18.44
2023-12-10T00:41:06.201Z,18.43
2023-12-10T00:43:34.443Z,18.42
2023-12-10T00:46:02.774Z,18.41
2023-12-10T00:48:31.526Z,18.40
2023-12-10T00:51:00.221Z,18.39
2023-12-10T00:53:29.015Z,18.40
2023-12-10T00:55:57.477Z,18.40
2023-12-10T00:58:26.076Z,18.40
2023-12-10T01:03:36.006Z,18.40
2023-12-10T01:06:05.220Z,18.36
2023-12-10T01:08:33.866Z,18.34
2023-12-10T01:11:02.404Z,18.33
2023-12-10T01:13:30.679Z,18.33
2023-12-10T01:15:59.086Z,18.32
2023-12-10T01:18:27.530Z,18.31
2023-12-10T01:20:55.888Z,18.30
2023-12-10T01:23:24.149Z,18.29
2023-12-10T01:25:52.833Z,18.28
2023-12-10T01:28:21.414Z,18.27
2023-12-10T01:30:50.281Z,18.26
2023-12-10T01:33:18.948Z,18.25
2023-12-10T01:35:47.409Z,18.24
2023-12-10T01:38:15.859Z,18.24
2023-12-10T01:40:44.518Z,18.23
2023-12-10T01:43:13.238Z,18.21
2023-12-10T01:45:42.397Z,18.21
2023-12-10T01:48:11.296Z,18.19
2023-12-10T01:50:40.189Z,18.19
2023-12-10T01:53:08.691Z,18.18
2023-12-10T01:55:37.675Z,18.18
2023-12-10T01:58:06.116Z,18.17
2023-12-10T02:00:35.198Z,18.16
2023-12-10T02:03:04.609Z,18.15
2023-12-10T02:05:33.288Z,18.15
2023-12-10T02:08:01.718Z,18.14
2023-12-10T02:10:30.034Z,18.13
2023-12-10T02:12:58.692Z,18.13
2023-12-10T02:15:28.275Z,18.11
2023-12-10T02:17:57.522Z,18.12
2023-12-10T02:20:27.152Z,18.11
2023-12-10T02:23:21.964Z,18.10
2023-12-10T02:25:51.179Z,18.09
2023-12-10T02:28:19.556Z,18.09
2023-12-10T02:30:48.175Z,18.07
2023-12-10T02:33:16.708Z,18.07
2023-12-10T02:35:45.230Z,18.06
2023-12-10T02:38:13.588Z,18.05
2023-12-10T02:40:42.163Z,18.04
2023-12-10T02:43:10.605Z,18.03
2023-12-10T02:45:39.320Z,18.02
2023-12-10T02:48:07.784Z,18.01
2023-12-10T02:50:36.210Z,18.00
2023-12-10T02:53:04.643Z,18.00
2023-12-10T02:55:33.307Z,17.98
2023-12-10T02:58:03.559Z,17.98
2023-12-10T03:00:33.961Z,17.98
2023-12-10T03:03:04.043Z,17.99
2023-12-10T03:05:33.696Z,17.99
2023-12-10T03:08:02.121Z,18.00
2023-12-10T03:10:30.525Z,18.01
2023-12-10T03:12:59.096Z,18.01
2023-12-10T03:15:27.636Z,18.01
2023-12-10T03:17:56.129Z,18.01
2023-12-10T03:20:24.652Z,18.02
2023-12-10T03:22:52.869Z,18.02
2023-12-10T03:25:23.265Z,18.02
2023-12-10T03:27:53.852Z,18.02
2023-12-10T03:30:22.580Z,18.02
2023-12-10T03:32:51.299Z,18.03
2023-12-10T03:35:19.694Z,18.03
2023-12-10T03:37:48.111Z,18.02
2023-12-10T03:40:16.762Z,18.02
2023-12-10T03:42:45.857Z,18.01
2023-12-10T03:45:14.253Z,18.01
2023-12-10T03:47:42.456Z,18.01
2023-12-10T03:50:11.124Z,18.01
2023-12-10T03:52:39.478Z,18.00
2023-12-10T03:55:09.871Z,17.99
2023-12-10T03:57:38.819Z,17.98
2023-12-10T04:00:08.259Z,17.98
2023-12-10T04:02:37.269Z,17.96
2023-12-10T04:05:06.312Z,17.95
2023-12-10T04:07:34.904Z,17.94
2023-12-10T04:10:03.683Z,17.94
2023-12-10T04:12:33.118Z,17.94
2023-12-10T04:15:01.417Z,17.93
2023-12-10T04:17:30.609Z,17.92
2023-12-10T04:19:59.005Z,17.92
2023-12-10T04:22:28.691Z,17.91
2023-12-10T04:24:57.947Z,17.89
2023-12-10T04:27:26.499Z,17.88
2023-12-10T04:29:54.872Z,17.85
2023-12-10T04:32:23.250Z,17.83
2023-12-10T04:34:52.433Z,17.81
2023-12-10T04:37:20.836Z,17.80
2023-12-10T04:39:49.096Z,17.80
2023-12-10T04:42:17.678Z,17.78
2023-12-10T04:44:46.953Z,17.76
2023-12-10T04:47:15.264Z,17.75
2023-12-10T04:49:44.131Z,17.74
2023-12-10T04:52:12.787Z,17.73
2023-12-10T04:54:41.175Z,17.72
2023-12-10T04:57:09.689Z,17.71
2023-12-10T04:59:37.904Z,17.69
2023-12-10T05:02:06.324Z,17.68
2023-12-10T05:04:34.843Z,17.67
2023-12-10T05:07:03.334Z,17.65
2023-12-10T05:09:31.676Z,17.64
2023-12-10T05:12:00.279Z,17.63
2023-12-10T05:14:28.738Z,17.62
2023-12-10T05:16:57.146Z,17.61
2023-12-10T05:19:26.672Z,17.60
2023-12-10T05:21:55.208Z,17.59
2023-12-10T05:24:23.689Z,17.56
2023-12-10T05:26:52.135Z,17.53
2023-12-10T05:29:20.998Z,17.50
2023-12-10T05:31:49.211Z,17.48
2023-12-10T05:34:17.940Z,17.46
2023-12-10T05:36:46.647Z,17.45
2023-12-10T05:39:14.965Z,17.45
2023-12-10T05:41:43.830Z,17.45
2023-12-10T05:44:12.263Z,17.44
2023-12-10T05:46:40.572Z,17.43
2023-12-10T05:49:09.014Z,17.42
2023-12-10T05:51:37.622Z,17.41
2023-12-10T05:54:06.012Z,17.40
2023-12-10T05:56:34.804Z,17.38
2023-12-10T05:59:03.036Z,17.38
2023-12-10T06:01:32.009Z,17.37
2023-12-10T06:04:00.643Z,17.36
2023-12-10T06:06:29.120Z,17.35
2023-12-10T06:08:57.390Z,17.33
2023-12-10T06:11:25.995Z,17.31
2023-12-10T06:13:54.460Z,17.29
2023-12-10T06:16:22.790Z,17.27
2023-12-10T06:18:51.292Z,17.24
2023-12-10T06:21:19.804Z,17.22
2023-12-10T06:23:48.088Z,17.20
2023-12-10T06:26:16.850Z,17.17
2023-12-10T06:28:45.246Z,17.14
2023-12-10T06:31:14.303Z,17.11
2023-12-10T06:33:46.702Z,17.09
2023-12-10T06:36:15.170Z,17.05
2023-12-10T06:38:43.610Z,17.03
2023-12-10T06:41:12.090Z,17.00
2023-12-10T06:43:40.444Z,16.97
2023-12-10T06:46:08.743Z,16.94
2023-12-10T06:48:37.334Z,16.90
2023-12-10T06:51:06.251Z,16.88
2023-12-10T06:53:34.624Z,16.86
2023-12-10T06:56:03.479Z,16.85
2023-12-10T06:58:31.871Z,16.83
2023-12-10T07:01:00.395Z,16.81
2023-12-10T07:03:28.864Z,16.79
2023-12-10T07:05:57.364Z,16.78
2023-12-10T07:08:25.951Z,16.78
2023-12-10T07:10:54.355Z,16.77
2023-12-10T07:13:22.672Z,16.78
2023-12-10T07:15:51.525Z,16.79
2023-12-10T07:18:20.296Z,16.81
2023-12-10T07:20:48.708Z,16.83
2023-12-10T07:23:17.084Z,16.85
2023-12-10T07:25:45.900Z,16.86
2023-12-10T07:28:14.095Z,16.88
2023-12-10T07:30:42.337Z,16.90
2023-12-10T07:33:10.996Z,16.95
2023-12-10T07:35:39.679Z,16.98
2023-12-10T07:38:08.542Z,17.01
2023-12-10T07:40:37.372Z,17.27
2023-12-10T07:43:06.690Z,18.33
2023-12-10T07:45:35.256Z,19.79
2023-12-10T07:48:04.926Z,21.12
2023-12-10T07:50:33.327Z,21.97
2023-12-10T07:53:04.412Z,22.21
2023-12-10T07:55:34.587Z,22.39
2023-12-10T07:58:03.389Z,23.22
2023-12-10T08:00:31.931Z,24.40
2023-12-10T08:03:00.854Z,25.45
2023-12-10T08:05:29.333Z,26.43
2023-12-10T08:07:58.531Z,27.14
2023-12-10T08:10:27.030Z,27.55
2023-12-10T08:12:56.164Z,27.88
2023-12-10T08:15:24.896Z,28.62
2023-12-10T08:17:54.368Z,29.47
2023-12-10T08:20:23.580Z,30.17
2023-12-10T08:22:51.977Z,30.83
2023-12-10T08:25:20.395Z,31.40
2023-12-10T08:27:48.935Z,31.99
2023-12-10T08:30:18.369Z,32.52
2023-12-10T08:32:46.832Z,32.93
2023-12-10T08:35:15.159Z,33.40
2023-12-10T08:37:43.822Z,33.86
2023-12-10T08:40:12.486Z,34.16
2023-12-10T08:42:41.807Z,34.62
2023-12-10T08:45:10.369Z,35.06
2023-12-10T08:47:39.100Z,35.41
2023-12-10T08:50:07.912Z,35.68
2023-12-10T08:52:36.248Z,35.93
2023-12-10T08:55:04.998Z,36.25
2023-12-10T08:57:33.556Z,36.55
2023-12-10T09:00:02.130Z,36.86
2023-12-10T09:02:31.833Z,37.08
2023-12-10T09:05:00.662Z,37.15
2023-12-10T09:07:31.269Z,37.03
2023-12-10T09:10:08.236Z,36.67
2023-12-10T09:12:40.688Z,36.02
2023-12-10T09:15:09.859Z,35.44
2023-12-10T09:17:38.386Z,35.01
2023-12-10T09:20:08.970Z,34.87
2023-12-10T09:22:37.237Z,35.11
2023-12-10T09:25:06.650Z,35.58
2023-12-10T09:27:35.129Z,36.03
2023-12-10T09:30:03.929Z,36.45
2023-12-10T09:32:32.664Z,36.80
2023-12-10T09:35:03.426Z,37.17
2023-12-10T09:37:31.833Z,37.42
2023-12-10T09:40:00.639Z,37.69
2023-12-10T09:42:29.623Z,37.88
2023-12-10T09:44:58.253Z,37.97
2023-12-10T09:47:28.297Z,38.08
2023-12-10T09:49:59.746Z,38.21
2023-12-10T09:52:28.619Z,38.28
2023-12-10T09:54:57.437Z,38.24
2023-12-10T09:57:26.254Z,38.17
2023-12-10T09:59:55.276Z,38.18
2023-12-10T10:02:34.827Z,38.33
2023-12-10T10:05:05.305Z,38.46
2023-12-10T10:07:33.921Z,38.46
2023-12-10T10:10:02.543Z,38.52
2023-12-10T10:12:32.631Z,38.44
2023-12-10T10:15:02.268Z,38.25
2023-12-10T10:17:33.437Z,37.84
2023-12-10T10:20:03.972Z,37.94
2023-12-10T10:22:32.808Z,38.30
2023-12-10T10:25:01.370Z,38.48
2023-12-10T10:27:30.484Z,38.36
2023-12-10T10:30:03.217Z,38.07
2023-12-10T10:32:32.058Z,37.68
2023-12-10T10:35:04.612Z,37.58
2023-12-10T10:37:33.093Z,37.48
2023-12-10T10:40:02.082Z,37.34
2023-12-10T10:42:31.683Z,37.40
2023-12-10T10:45:02.668Z,37.70
2023-12-10T10:47:33.941Z,37.80
2023-12-10T10:50:20.890Z,37.89
2023-12-10T10:52:57.380Z,37.90
2023-12-10T10:55:26.589Z,37.95
2023-12-10T10:57:55.748Z,37.90
2023-12-10T11:00:27.444Z,37.82
2023-12-10T11:02:56.337Z,37.66
2023-12-10T11:05:32.620Z,37.35
2023-12-10T11:08:02.482Z,36.90
2023-12-10T11:10:31.403Z,36.66
2023-12-10T11:13:01.139Z,36.50
2023-12-10T11:15:30.470Z,36.21
2023-12-10T11:18:01.394Z,35.91
2023-12-10T11:20:43.699Z,35.62
2023-12-10T11:23:16.987Z,34.99
2023-12-10T11:25:46.206Z,34.72
2023-12-10T11:28:16.553Z,34.48
2023-12-10T11:30:46.306Z,34.24
2023-12-10T11:33:16.813Z,34.22
2023-12-10T11:36:17.277Z,34.16
2023-12-10T11:38:34.874Z,33.96
2023-12-10T11:41:05.210Z,33.73
2023-12-10T11:43:33.954Z,33.58
2023-12-10T11:46:03.009Z,33.46
2023-12-10T11:48:32.590Z,33.33
2023-12-10T11:51:01.540Z,33.15
2023-12-10T11:53:30.349Z,33.02
2023-12-10T11:55:59.810Z,32.83
2023-12-10T11:58:29.094Z,32.68
2023-12-10T12:01:00.157Z,32.57
2023-12-10T12:03:32.714Z,32.32
2023-12-10T12:06:01.739Z,31.97
2023-12-10T12:08:31.184Z,31.68
2023-12-10T12:11:00.106Z,31.54
2023-12-10T12:13:29.884Z,31.45
2023-12-10T12:15:58.893Z,31.33
2023-12-10T12:18:28.451Z,31.29
2023-12-10T12:20:57.717Z,31.16
2023-12-10T12:23:26.646Z,31.05
2023-12-10T12:25:56.240Z,31.03
2023-12-10T12:28:25.321Z,31.15
2023-12-10T12:30:54.807Z,31.22
2023-12-10T12:33:23.853Z,31.26
2023-12-10T12:35:52.574Z,31.09
2023-12-10T12:38:21.041Z,30.96
2023-12-10T12:40:49.442Z,30.65
2023-12-10T12:43:18.728Z,30.13
2023-12-10T12:45:47.005Z,29.75
2023-12-10T12:48:15.547Z,29.34
2023-12-10T12:50:44.470Z,28.93
2023-12-10T12:53:14.091Z,28.51
2023-12-10T12:55:43.109Z,28.18
2023-12-10T12:58:12.379Z,27.95
2023-12-10T13:00:40.769Z,27.62
2023-12-10T13:03:10.471Z,27.33
2023-12-10T13:05:39.273Z,27.19
2023-12-10T13:08:07.689Z,27.30
2023-12-10T13:10:36.235Z,27.57
2023-12-10T13:13:04.873Z,27.99
2023-12-10T13:15:33.933Z,28.34
2023-12-10T13:18:02.668Z,28.62
2023-12-10T13:20:31.593Z,28.71
2023-12-10T13:23:00.686Z,28.80
2023-12-10T13:25:28.898Z,28.87
2023-12-10T13:27:57.466Z,28.70
2023-12-10T13:30:26.247Z,28.55
2023-12-10T13:32:54.713Z,28.44
2023-12-10T13:35:23.947Z,28.35
2023-12-10T13:37:52.138Z,28.36
2023-12-10T13:40:20.658Z,28.46
2023-12-10T13:42:49.508Z,28.63
2023-12-10T13:45:17.873Z,28.79
2023-12-10T13:47:46.432Z,28.81
2023-12-10T13:50:16.224Z,28.63
2023-12-10T13:52:45.314Z,28.08
2023-12-10T13:55:14.320Z,27.53
2023-12-10T13:57:43.133Z,27.25
2023-12-10T14:00:12.516Z,26.99
2023-12-10T14:02:41.669Z,26.77
2023-12-10T14:05:09.942Z,26.59
2023-12-10T14:07:38.251Z,26.34
2023-12-10T14:10:07.243Z,25.99
2023-12-10T14:12:35.706Z,25.77
2023-12-10T14:15:04.571Z,25.71
2023-12-10T14:17:33.673Z,25.60
2023-12-10T14:20:04.104Z,25.46
2023-12-10T14:22:33.616Z,25.26
2023-12-10T14:25:02.298Z,24.98
2023-12-10T14:27:33.367Z,24.80
2023-12-10T14:30:01.747Z,24.71
2023-12-10T14:32:30.050Z,24.73
2023-12-10T14:34:58.743Z,24.77
2023-12-10T14:37:27.506Z,24.77
2023-12-10T14:39:56.521Z,24.80
2023-12-10T14:42:26.110Z,24.70
2023-12-10T14:44:54.513Z,24.68
2023-12-10T14:47:22.790Z,24.76
2023-12-10T14:49:52.119Z,24.72
2023-12-10T14:52:20.604Z,24.55
2023-12-10T14:54:49.484Z,24.44
2023-12-10T14:57:17.884Z,24.34
2023-12-10T14:59:46.461Z,24.27
2023-12-10T15:02:15.130Z,24.14
2023-12-10T15:04:43.557Z,24.05
2023-12-10T15:07:13.022Z,24.00
2023-12-10T15:09:41.339Z,23.89
2023-12-10T15:12:10.441Z,23.69
2023-12-10T15:14:39.573Z,23.49
2023-12-10T15:17:08.058Z,23.38
2023-12-10T15:19:36.449Z,23.21
2023-12-10T15:22:06.567Z,23.04
2023-12-10T15:24:36.174Z,22.79
2023-12-10T15:27:04.858Z,22.54
2023-12-10T15:29:33.990Z,22.35
2023-12-10T15:32:02.376Z,22.07
2023-12-10T15:34:31.054Z,21.80
2023-12-10T15:36:59.868Z,21.60
2023-12-10T15:39:29.149Z,21.43
2023-12-10T15:41:58.152Z,21.23
2023-12-10T15:44:26.394Z,21.04
2023-12-10T15:46:54.905Z,20.85
2023-12-10T15:49:23.400Z,20.64
2023-12-10T15:51:53.406Z,20.51
2023-12-10T15:54:22.183Z,20.42
2023-12-10T15:56:50.502Z,20.35
2023-12-10T15:59:18.688Z,20.26
2023-12-10T16:01:47.150Z,20.24
2023-12-10T16:04:15.651Z,20.19
2023-12-10T16:06:44.292Z,20.15
2023-12-10T16:09:12.681Z,20.05
2023-12-10T16:11:41.467Z,19.94
2023-12-10T16:14:11.184Z,19.79
2023-12-10T16:16:39.827Z,19.66
2023-12-10T16:19:08.845Z,19.58
2023-12-10T16:21:37.773Z,19.51
2023-12-10T16:24:06.614Z,19.45
2023-12-10T16:26:39.422Z,19.42
2023-12-10T16:29:07.906Z,19.40
2023-12-10T16:31:36.406Z,19.36
2023-12-10T16:34:04.881Z,19.35
2023-12-10T16:36:36.271Z,19.33
2023-12-10T16:39:04.834Z,19.32
2023-12-10T16:41:34.782Z,19.29
2023-12-10T16:44:04.005Z,19.21
2023-12-10T16:46:39.391Z,19.13
2023-12-10T16:49:08.242Z,19.09
2023-12-10T16:51:37.144Z,19.09
2023-12-10T16:54:06.116Z,19.09
2023-12-10T16:56:34.522Z,19.09
2023-12-10T16:59:02.819Z,19.10
2023-12-10T17:01:32.021Z,19.09
2023-12-10T17:04:01.031Z,19.09
2023-12-10T17:06:29.855Z,19.09
2023-12-10T17:08:58.372Z,19.08
2023-12-10T17:11:28.407Z,19.05
2023-12-10T17:13:56.664Z,19.04
2023-12-10T17:16:25.238Z,19.01
2023-12-10T17:18:54.801Z,18.98
2023-12-10T17:21:23.491Z,18.96
2023-12-10T17:23:52.447Z,18.92
2023-12-10T17:26:20.843Z,18.89
2023-12-10T17:28:49.126Z,18.86
2023-12-10T17:31:17.617Z,18.82
2023-12-10T17:33:46.314Z,18.81
2023-12-10T17:36:15.878Z,18.79
2023-12-10T17:38:44.211Z,18.78
2023-12-10T17:41:12.591Z,18.78
2023-12-10T17:43:41.074Z,18.79
2023-12-10T17:46:09.435Z,18.77
2023-12-10T17:48:37.957Z,18.75
2023-12-10T17:51:13.768Z,18.74
2023-12-10T17:53:45.107Z,18.73
2023-12-10T17:56:15.302Z,18.73
2023-12-10T17:58:44.024Z,18.72
2023-12-10T18:01:13.510Z,18.71
2023-12-10T18:03:42.211Z,18.71
2023-12-10T18:06:10.616Z,18.71
2023-12-10T18:08:39.408Z,18.70
2023-12-10T18:11:07.860Z,18.70
2023-12-10T18:13:36.763Z,18.69
2023-12-10T18:16:07.582Z,18.67
2023-12-10T18:18:36.005Z,18.65
2023-12-10T18:21:04.958Z,18.63
2023-12-10T18:23:33.308Z,18.61
2023-12-10T18:26:01.724Z,18.57
2023-12-10T18:28:30.041Z,18.54
2023-12-10T18:31:00.215Z,18.53
2023-12-10T18:33:29.779Z,18.51
2023-12-10T18:35:58.889Z,18.49
2023-12-10T18:38:27.151Z,18.47
2023-12-10T18:40:55.367Z,18.44
2023-12-10T18:43:24.346Z,18.42
2023-12-10T18:45:52.966Z,18.40
2023-12-10T18:48:21.774Z,18.38
2023-12-10T18:50:50.360Z,18.37
2023-12-10T18:53:18.616Z,18.36
2023-12-10T18:55:46.872Z,18.35
2023-12-10T18:58:15.754Z,18.34
2023-12-10T19:00:44.503Z,18.36
2023-12-10T19:03:12.901Z,18.37
2023-12-10T19:05:41.800Z,18.36
2023-12-10T19:08:10.134Z,18.35
2023-12-10T19:10:39.093Z,18.35
2023-12-10T19:13:10.904Z,18.33
2023-12-10T19:15:39.513Z,18.31
2023-12-10T19:18:08.048Z,18.29
2023-12-10T19:20:37.097Z,18.27
2023-12-10T19:23:05.364Z,18.25
2023-12-10T19:25:33.721Z,18.24
2023-12-10T19:28:02.795Z,18.23
2023-12-10T19:30:31.398Z,18.19
2023-12-10T19:32:59.837Z,18.18
2023-12-10T19:35:29.448Z,18.15
2023-12-10T19:37:58.405Z,18.11
2023-12-10T19:40:26.633Z,18.08
2023-12-10T19:42:54.889Z,18.05
2023-12-10T19:45:23.778Z,18.02
2023-12-10T19:47:52.186Z,17.99
2023-12-10T19:50:22.031Z,17.97
2023-12-10T19:52:50.773Z,17.93
2023-12-10T19:55:18.992Z,17.90
2023-12-10T19:57:47.620Z,17.87
2023-12-10T20:00:16.290Z,17.88
2023-12-10T20:02:44.779Z,17.87
2023-12-10T20:05:13.513Z,17.87
2023-12-10T20:07:42.209Z,17.87
2023-12-10T20:10:10.768Z,17.88
2023-12-10T20:12:39.862Z,17.85
2023-12-10T20:15:11.279Z,17.83
2023-12-10T20:17:41.209Z,17.81
2023-12-10T20:20:10.013Z,17.80
2023-12-10T20:22:38.390Z,17.79
2023-12-10T20:25:10.991Z,17.80
2023-12-10T20:27:44.772Z,17.80
2023-12-10T20:30:14.044Z,17.79
2023-12-10T20:32:42.485Z,17.77
2023-12-10T20:35:11.453Z,17.76
2023-12-10T20:37:39.935Z,17.78
2023-12-10T20:40:09.244Z,17.76
2023-12-10T20:42:38.173Z,17.76
2023-12-10T20:45:07.471Z,17.76
2023-12-10T20:47:35.757Z,17.76
2023-12-10T20:50:04.496Z,17.77
2023-12-10T20:52:33.959Z,17.77
2023-12-10T20:55:02.846Z,17.75
2023-12-10T20:57:31.434Z,17.73
2023-12-10T21:00:00.061Z,17.66
2023-12-10T21:02:30.153Z,17.59
2023-12-10T21:04:59.428Z,17.53
2023-12-10T21:07:28.041Z,17.47
2023-12-10T21:09:56.635Z,17.44
2023-12-10T21:12:25.395Z,17.38
2023-12-10T21:14:53.694Z,17.33
2023-12-10T21:17:23.289Z,17.30
2023-12-10T21:19:52.191Z,17.28
2023-12-10T21:22:20.889Z,17.29
2023-12-10T21:24:49.127Z,17.30
2023-12-10T21:27:17.509Z,17.29
2023-12-10T21:29:45.858Z,17.29
2023-12-10T21:32:14.064Z,17.28
2023-12-10T21:34:43.936Z,17.29
2023-12-10T21:37:12.733Z,17.28
2023-12-10T21:39:42.223Z,17.27
2023-12-10T21:42:10.860Z,17.27
2023-12-10T21:44:39.174Z,17.27
2023-12-10T21:47:07.515Z,17.28
2023-12-10T21:49:39.756Z,17.30
2023-12-10T21:52:08.698Z,17.29
2023-12-10T21:54:37.181Z,17.29
2023-12-10T21:57:05.485Z,17.27
2023-12-10T21:59:33.807Z,17.26
2023-12-10T22:02:02.474Z,17.25
2023-12-10T22:04:30.980Z,17.24
2023-12-10T22:06:59.599Z,17.23
2023-12-10T22:09:28.153Z,17.19
2023-12-10T22:11:56.479Z,17.16
2023-12-10T22:14:24.704Z,17.13
2023-12-10T22:16:53.902Z,17.12
2023-12-10T22:19:22.499Z,17.11
2023-12-10T22:21:51.495Z,17.08
2023-12-10T22:24:20.913Z,17.06
2023-12-10T22:26:49.345Z,17.04
2023-12-10T22:29:18.091Z,17.03
2023-12-10T22:31:46.355Z,17.02
2023-12-10T22:34:14.655Z,17.02
2023-12-10T22:36:43.406Z,16.99
2023-12-10T22:39:12.017Z,16.99
2023-12-10T22:41:40.389Z,16.97
2023-12-10T22:44:08.940Z,16.95
2023-12-10T22:46:37.270Z,16.95
2023-12-10T22:49:05.679Z,16.95
2023-12-10T22:51:34.285Z,16.96
2023-12-10T22:54:02.864Z,16.95
2023-12-10T22:56:32.586Z,16.92
2023-12-10T22:59:01.144Z,16.91
2023-12-10T23:01:29.509Z,16.93
2023-12-10T23:03:57.906Z,16.97
2023-12-10T23:06:26.645Z,16.99
2023-12-10T23:08:55.606Z,17.00
2023-12-10T23:11:24.153Z,17.02
2023-12-10T23:13:52.642Z,17.02
2023-12-10T23:16:20.976Z,17.02
2023-12-10T23:18:49.523Z,17.02
2023-12-10T23:21:18.068Z,17.02
2023-12-10T23:23:46.428Z,17.04
2023-12-10T23:26:14.709Z,17.04
2023-12-10T23:28:43.639Z,17.04
2023-12-10T23:31:12.215Z,17.06
2023-12-10T23:33:41.093Z,17.08
2023-12-10T23:36:09.657Z,17.11
2023-12-10T23:38:39.698Z,17.16
2023-12-10T23:41:09.033Z,17.20
2023-12-10T23:43:37.619Z,17.23
2023-12-10T23:46:10.413Z,17.26
2023-12-10T23:48:39.692Z,17.30
2023-12-10T23:51:21.295Z,17.33
2023-12-10T23:53:49.932Z,17.34
2023-12-10T23:56:18.313Z,17.34
2023-12-10T23:58:46.910Z,17.34
